createdAt,value
2019-02-20T00:03:52.922Z,11.63
2019-02-20T00:08:58.658Z,11.23
2019-02-20T00:14:03.307Z,10.77
2019-02-20T00:19:08.412Z,10.37
2019-02-20T00:24:13.392Z,9.80
2019-02-20T00:29:19.321Z,12.07
2019-02-20T00:34:24.561Z,11.53
2019-02-20T00:39:29.018Z,12.67
2019-02-20T00:44:52.735Z,13.95
2019-02-20T00:49:57.830Z,12.43
2019-02-20T00:55:02.906Z,12.47
2019-02-20T01:00:07.940Z,12.40
2019-02-20T01:05:12.386Z,13.17
2019-02-20T01:10:17.619Z,12.50
2019-02-20T01:15:22.625Z,12.73
2019-02-20T01:20:27.457Z,12.53
2019-02-20T01:25:32.214Z,14.07
2019-02-20T01:30:36.813Z,12.53
2019-02-20T01:35:41.840Z,11.60
2019-02-20T01:40:49.492Z,13.43
2019-02-20T01:45:54.560Z,11.60
2019-02-20T01:50:59.120Z,12.07
2019-02-20T01:56:04.208Z,11.30
2019-02-20T02:01:08.615Z,12.77
2019-02-20T02:06:14.014Z,12.93
2019-02-20T02:11:19.188Z,13.17
2019-02-20T02:16:23.803Z,13.17
2019-02-20T02:21:28.790Z,13.03
2019-02-20T02:26:33.760Z,13.23
2019-02-20T02:31:38.916Z,11.23
2019-02-20T02:36:45.049Z,10.53
2019-02-20T02:41:49.389Z,11.40
2019-02-20T02:46:54.435Z,10.83
2019-02-20T02:51:58.867Z,11.40
2019-02-20T02:57:03.659Z,10.50
2019-02-20T03:02:08.026Z,10.35
2019-02-20T03:07:13.096Z,10.40
2019-02-20T03:12:17.717Z,10.27
2019-02-20T03:17:22.773Z,11.03
2019-02-20T03:22:27.114Z,10.83
2019-02-20T03:27:31.956Z,10.20
2019-02-20T03:32:36.703Z,10.47
2019-02-20T03:37:43.758Z,11.33
2019-02-20T03:42:49.777Z,12.20
2019-02-20T03:47:55.023Z,12.03
2019-02-20T03:53:00.383Z,12.30
2019-02-20T03:58:05.334Z,11.97
2019-02-20T04:03:11.402Z,12.67
2019-02-20T04:08:16.266Z,12.03
2019-02-20T04:13:21.419Z,12.17
2019-02-20T04:18:26.467Z,11.90
2019-02-20T04:23:31.668Z,12.07
2019-02-20T04:28:37.013Z,11.80
2019-02-20T04:33:42.031Z,12.67
2019-02-20T04:38:47.337Z,12.73
2019-02-20T04:43:51.959Z,12.07
2019-02-20T04:48:56.586Z,12.17
2019-02-20T04:54:01.113Z,12.03
2019-02-20T04:59:05.781Z,11.00
2019-02-20T05:04:10.992Z,12.83
2019-02-20T05:09:15.364Z,11.07
2019-02-20T05:14:23.139Z,10.80
2019-02-20T05:19:29.050Z,10.82
2019-02-20T05:24:33.808Z,10.33
2019-02-20T05:29:38.674Z,9.93
2019-02-20T05:34:43.796Z,10.30
2019-02-20T05:39:48.785Z,10.90
2019-02-20T05:44:53.297Z,11.23
2019-02-20T05:50:00.353Z,11.07
2019-02-20T05:55:04.941Z,10.37
2019-02-20T06:00:15.180Z,11.13
2019-02-20T06:05:20.291Z,9.70
2019-02-20T06:10:25.652Z,10.50
2019-02-20T06:15:31.046Z,10.53
2019-02-20T06:20:37.208Z,10.13
2019-02-20T06:25:44.198Z,10.47
2019-02-20T06:30:49.384Z,10.93
2019-02-20T06:35:55.768Z,11.40
2019-02-20T06:41:00.758Z,9.73
2019-02-20T06:46:08.658Z,10.30
2019-02-20T06:51:13.712Z,10.83
2019-02-20T06:56:18.879Z,10.43
2019-02-20T07:01:24.054Z,10.40
2019-02-20T07:06:56.477Z,11.63
2019-02-20T07:12:17.314Z,10.60
2019-02-20T07:17:51.356Z,10.27
2019-02-20T07:23:30.808Z,10.10
2019-02-20T07:29:08.591Z,10.83
2019-02-20T07:34:13.125Z,9.90
2019-02-20T07:39:20.536Z,9.47
2019-02-20T07:44:25.297Z,9.87
2019-02-20T07:49:33.717Z,8.75
2019-02-20T07:54:38.564Z,11.30
2019-02-20T07:59:43.007Z,10.00
2019-02-20T08:04:48.099Z,10.70
2019-02-20T08:09:52.977Z,9.77
2019-02-20T08:14:57.743Z,9.07
2019-02-20T08:20:02.151Z,8.87
2019-02-20T08:25:06.645Z,9.33
2019-02-20T08:30:13.799Z,9.10
2019-02-20T08:35:18.516Z,8.00
2019-02-20T08:40:23.995Z,8.30
2019-02-20T08:45:28.990Z,8.47
2019-02-20T08:50:33.678Z,9.47
2019-02-20T08:55:38.416Z,9.00
2019-02-20T09:00:46.291Z,9.90
2019-02-20T09:05:52.331Z,9.63
2019-02-20T09:10:56.976Z,9.17
2019-02-20T09:16:01.447Z,8.97
2019-02-20T09:21:05.939Z,8.60
2019-02-20T09:26:10.588Z,8.60
2019-02-20T09:31:15.249Z,9.00
2019-02-20T09:36:22.174Z,8.27
2019-02-20T09:41:27.268Z,8.77
2019-02-20T09:46:32.053Z,8.83
2019-02-20T09:51:36.509Z,8.20
2019-02-20T09:56:41.239Z,8.80
2019-02-20T10:01:45.963Z,8.07
2019-02-20T10:06:50.721Z,7.72
2019-02-20T10:11:55.140Z,8.87
2019-02-20T10:17:00.081Z,7.90
2019-02-20T10:22:05.368Z,8.37
2019-02-20T10:27:09.925Z,8.77
2019-02-20T10:32:14.531Z,9.60
2019-02-20T10:37:19.099Z,7.93
2019-02-20T10:42:24.055Z,7.77
2019-02-20T10:47:29.502Z,7.90
2019-02-20T10:52:34.237Z,9.13
2019-02-20T10:57:39.189Z,7.90
2019-02-20T11:02:44.173Z,7.73
2019-02-20T11:07:49.387Z,7.60
2019-02-20T11:12:53.936Z,7.80
2019-02-20T11:17:58.531Z,7.07
2019-02-20T11:23:03.430Z,6.50
2019-02-20T11:28:09.478Z,5.73
2019-02-20T11:33:14.744Z,5.80
2019-02-20T11:38:19.045Z,4.17
2019-02-20T11:43:23.677Z,4.60
2019-02-20T11:48:28.911Z,5.33
2019-02-20T11:53:37.121Z,4.60
2019-02-20T11:58:39.754Z,3.90
2019-02-20T12:03:46.416Z,5.27
2019-02-20T12:08:51.621Z,5.17
2019-02-20T12:13:56.265Z,5.33
2019-02-20T12:19:01.251Z,4.53
2019-02-20T12:24:05.955Z,4.87
2019-02-20T12:29:11.286Z,5.03
2019-02-20T12:34:16.687Z,4.50
2019-02-20T12:39:21.390Z,4.55
2019-02-20T12:44:25.795Z,5.13
2019-02-20T12:49:31.578Z,4.83
2019-02-20T12:54:36.575Z,4.37
2019-02-20T12:59:41.807Z,4.03
2019-02-20T13:04:48.356Z,3.90
2019-02-20T13:09:53.203Z,3.67
2019-02-20T13:14:57.587Z,3.53
2019-02-20T13:20:02.710Z,3.30
2019-02-20T13:25:07.290Z,3.30
2019-02-20T13:30:12.322Z,3.30
2019-02-20T13:35:21.805Z,3.57
2019-02-20T13:40:26.457Z,3.27
2019-02-20T13:45:31.450Z,3.40
2019-02-20T13:50:38.464Z,3.80
2019-02-20T13:55:44.995Z,3.50
2019-02-20T14:01:01.181Z,3.77
2019-02-20T14:06:05.982Z,3.10
2019-02-20T14:11:11.029Z,3.70
2019-02-20T14:16:17.293Z,4.07
2019-02-20T14:21:22.108Z,3.17
2019-02-20T14:26:27.014Z,3.00
2019-02-20T14:31:32.026Z,2.60
2019-02-20T14:36:37.473Z,2.17
2019-02-20T14:41:42.379Z,1.90
2019-02-20T14:46:47.032Z,1.80
2019-02-20T14:51:52.049Z,1.90
2019-02-20T14:56:56.517Z,2.27
2019-02-20T15:02:01.281Z,1.32
2019-02-20T15:07:06.471Z,1.30
2019-02-20T15:12:11.369Z,1.53
2019-02-20T15:17:17.823Z,1.93
2019-02-20T15:22:22.726Z,1.43
2019-02-20T15:27:28.873Z,1.30
2019-02-20T15:32:34.122Z,1.67
2019-02-20T15:37:39.218Z,1.70
2019-02-20T15:42:45.495Z,1.80
2019-02-20T15:47:50.358Z,1.50
2019-02-20T15:52:54.890Z,1.70
2019-02-20T15:58:00.458Z,1.70
2019-02-20T16:03:06.105Z,4.23
2019-02-20T16:08:11.127Z,4.50
2019-02-20T16:13:16.038Z,6.23
2019-02-20T16:18:21.020Z,10.63
2019-02-20T16:23:28.508Z,17.98
2019-02-20T16:28:34.189Z,11.77
2019-02-20T16:33:40.462Z,7.73
2019-02-20T16:38:46.115Z,7.00
2019-02-20T16:43:52.786Z,5.60
2019-02-20T16:48:58.400Z,5.63
2019-02-20T16:54:04.937Z,5.57
2019-02-20T16:59:09.885Z,6.77
2019-02-20T17:04:16.944Z,7.33
2019-02-20T17:09:23.215Z,6.97
2019-02-20T17:14:28.212Z,7.50
2019-02-20T17:19:34.220Z,7.67
2019-02-20T17:24:48.091Z,9.67
2019-02-20T17:29:53.175Z,9.70
2019-02-20T17:34:59.056Z,9.17
2019-02-20T17:40:04.631Z,7.20
2019-02-20T17:45:09.956Z,8.57
2019-02-20T17:50:16.109Z,7.00
2019-02-20T17:55:20.761Z,6.83
2019-02-20T18:00:27.908Z,6.43
2019-02-20T18:05:32.417Z,6.40
2019-02-20T18:10:37.997Z,7.67
2019-02-20T18:15:43.223Z,6.97
2019-02-20T18:20:47.934Z,8.57
2019-02-20T18:25:53.452Z,8.33
2019-02-20T18:31:00.030Z,8.97
2019-02-20T18:36:05.348Z,9.20
2019-02-20T18:41:10.497Z,9.10
2019-02-20T18:46:17.447Z,8.77
2019-02-20T18:51:22.344Z,8.70
2019-02-20T18:56:29.261Z,8.10
2019-02-20T19:01:33.965Z,8.70
2019-02-20T19:06:40.905Z,8.93
2019-02-20T19:12:34.688Z,8.75
2019-02-20T19:18:24.614Z,8.27
2019-02-20T19:24:29.244Z,9.07
2019-02-20T19:30:12.103Z,7.93
2019-02-20T19:36:06.752Z,9.43
2019-02-20T19:42:08.634Z,10.07
2019-02-20T19:47:53.494Z,11.17
2019-02-20T19:53:31.054Z,10.10
2019-02-20T19:58:55.338Z,8.43
2019-02-20T20:04:40.369Z,9.20
2019-02-20T20:10:12.585Z,8.47
2019-02-20T20:15:42.267Z,7.33
2019-02-20T20:21:12.955Z,7.30
2019-02-20T20:27:07.165Z,8.10
2019-02-20T20:33:17.608Z,7.97
2019-02-20T20:38:50.322Z,7.40
2019-02-20T20:44:28.108Z,7.43
2019-02-20T20:50:18.622Z,7.93
2019-02-20T20:56:07.793Z,7.13
2019-02-20T21:01:55.068Z,6.87
2019-02-20T21:07:56.313Z,6.87
2019-02-20T21:13:28.493Z,7.33
2019-02-20T21:19:38.022Z,6.10
2019-02-20T21:25:26.724Z,5.43
2019-02-20T21:30:54.891Z,5.27
2019-02-20T21:36:15.860Z,5.33
2019-02-20T21:42:04.425Z,6.40
2019-02-20T21:47:44.716Z,5.47
2019-02-20T21:53:29.012Z,6.30
2019-02-20T21:59:19.762Z,6.43
2019-02-20T22:05:08.578Z,5.93
2019-02-20T22:10:48.337Z,7.17
2019-02-20T22:16:34.827Z,7.97
2019-02-20T22:22:39.131Z,7.78
2019-02-20T22:28:41.026Z,8.35
2019-02-20T22:34:25.899Z,8.27
2019-02-20T22:39:43.477Z,6.97
2019-02-20T22:45:36.399Z,7.70
2019-02-20T22:51:27.649Z,7.97
2019-02-20T22:57:21.326Z,19.40
2019-02-20T23:02:58.989Z,14.33
2019-02-20T23:08:11.923Z,14.33
2019-02-20T23:13:27.664Z,10.40
2019-02-20T23:18:32.277Z,9.37
2019-02-20T23:23:36.893Z,8.73
2019-02-20T23:28:41.505Z,9.10
2019-02-20T23:33:46.551Z,8.90
2019-02-20T23:38:51.838Z,9.00
2019-02-20T23:43:56.132Z,7.77
2019-02-20T23:49:00.687Z,9.37
2019-02-20T23:54:05.404Z,9.13
2019-02-20T23:59:10.401Z,8.50
